Time;durP1;ratioP1;P1;durP2;ratioP2;P2;SDS_P1;SDS_P2;PMS_P1;PMS_P2;Temp;Humidity;BMP_temperature;BMP_pressure;BME280_temperature;BME280_humidity;BME280_pressure;Samples;Min_cycle;Max_cycle;Signal;HPM_P1;HPM_P2
2021/07/24 00:00:12;;;;;;;1.23;1.23;;;;;;;17.56;66.45;101817.75;5981102;29;20221;-75
2021/07/24 00:03:19;;;;;;;3.53;1.55;;;;;;;17.54;66.43;101825.44;5980597;29;20236;-75
2021/07/24 00:06:24;;;;;;;2.65;1.40;;;;;;;17.50;66.70;101825.88;5981370;29;20193;-75
2021/07/24 00:09:30;;;;;;;1.45;1.35;;;;;;;17.43;66.88;101818.81;5980202;29;20404;-75
2021/07/24 00:12:35;;;;;;;1.30;1.30;;;;;;;17.42;66.86;101823.47;5980010;29;20193;-75
2021/07/24 00:15:40;;;;;;;1.83;1.73;;;;;;;17.35;67.35;101825.50;5980060;29;20434;-75
2021/07/24 00:18:44;;;;;;;1.52;1.30;;;;;;;17.34;67.22;101821.06;5980379;29;20224;-75
2021/07/24 00:21:48;;;;;;;1.55;1.30;;;;;;;17.44;67.20;101821.31;5980249;29;20193;-75
2021/07/24 00:24:53;;;;;;;1.92;1.40;;;;;;;17.46;67.14;101819.16;5980811;29;20202;-75
2021/07/24 00:27:57;;;;;;;1.42;1.40;;;;;;;17.46;67.13;101824.66;5979753;29;20484;-75
2021/07/24 00:31:03;;;;;;;4.10;1.52;;;;;;;17.48;67.22;101818.91;5980844;29;20238;-75
2021/07/24 00:34:17;;;;;;;1.60;1.60;;;;;;;17.37;67.47;101815.06;5980014;29;20294;-75
2021/07/24 00:37:22;;;;;;;1.48;1.45;;;;;;;17.33;68.18;101818.56;5980629;29;20197;-75
2021/07/24 00:40:27;;;;;;;1.55;1.45;;;;;;;17.36;68.20;101818.03;5979516;29;20221;-75
2021/07/24 00:43:35;;;;;;;1.92;1.38;;;;;;;17.32;68.31;101823.22;5980789;29;20193;-75
2021/07/24 00:46:43;;;;;;;1.50;1.50;;;;;;;17.29;68.43;101828.34;5978915;29;20216;-75
2021/07/24 00:49:48;;;;;;;2.63;1.50;;;;;;;17.32;68.30;101823.22;5979666;29;20389;-75
2021/07/24 00:52:59;;;;;;;1.50;1.50;;;;;;;17.31;68.35;101815.16;5980290;29;20274;-75
2021/07/24 00:56:05;;;;;;;1.50;1.50;;;;;;;17.30;68.75;101814.34;5979916;29;20281;-75
2021/07/24 00:59:12;;;;;;;1.20;1.20;;;;;;;17.33;68.62;101813.84;5980110;29;20193;-75
2021/07/24 01:02:17;;;;;;;1.42;1.40;;;;;;;17.28;68.80;101816.47;5990713;24;20562;-76
2021/07/24 01:05:21;;;;;;;1.30;1.30;;;;;;;17.27;68.77;101813.97;5978546;29;20479;-76
2021/07/24 01:08:27;;;;;;;1.75;1.65;;;;;;;17.28;68.84;101813.72;5978642;29;20208;-76
2021/07/24 01:11:31;;;;;;;1.40;1.30;;;;;;;17.21;69.16;101804.72;5977973;29;20248;-75
2021/07/24 01:14:37;;;;;;;1.55;1.30;;;;;;;17.29;68.99;101812.66;5980189;29;20218;-74
2021/07/24 01:17:43;;;;;;;2.38;1.30;;;;;;;17.29;68.94;101811.81;5989619;29;20580;-75
2021/07/24 01:20:52;;;;;;;1.52;1.48;;;;;;;17.29;69.34;101807.13;5997966;29;20236;-76
2021/07/24 01:23:59;;;;;;;2.90;1.88;;;;;;;17.28;69.34;101805.44;5984606;29;20256;-76
2021/07/24 01:27:07;;;;;;;1.30;1.30;;;;;;;17.16;69.90;101812.03;5983674;29;20199;-75
2021/07/24 01:30:14;;;;;;;2.92;1.55;;;;;;;17.17;70.17;101811.81;5982459;29;20212;-76
2021/07/24 01:33:21;;;;;;;2.33;1.40;;;;;;;17.15;70.46;101811.22;5982390;29;20213;-75
2021/07/24 01:36:27;;;;;;;1.58;1.58;;;;;;;17.13;70.61;101812.53;5984057;29;20234;-75
2021/07/24 01:39:33;;;;;;;1.50;1.40;;;;;;;17.06;71.09;101811.75;5982233;29;20347;-75
2021/07/24 01:42:38;;;;;;;1.80;1.48;;;;;;;17.06;71.19;101809.84;5983037;29;20215;-76
2021/07/24 01:45:44;;;;;;;3.13;1.73;;;;;;;17.14;70.86;101815.03;5984198;29;20260;-75
2021/07/24 01:48:53;;;;;;;3.30;1.67;;;;;;;17.02;71.84;101814.19;5982902;29;20304;-76
2021/07/24 01:55:36;;;;;;;2.42;1.48;;;;;;;17.08;72.07;101815.97;5985583;29;20200;-75
2021/07/24 01:58:51;;;;;;;1.80;1.70;;;;;;;17.07;72.18;101808.78;5981519;29;20213;-75
2021/07/24 02:02:02;;;;;;;1.70;1.60;;;;;;;17.13;72.30;101812.53;5983312;29;20275;-75
2021/07/24 02:05:27;;;;;;;2.05;1.60;;;;;;;17.11;72.23;101803.63;5982597;29;20193;-76
2021/07/24 02:08:34;;;;;;;1.35;1.35;;;;;;;17.12;71.99;101806.16;5997011;29;20344;-76
2021/07/24 02:11:41;;;;;;;1.58;1.58;;;;;;;17.10;72.22;101813.81;5983634;29;20244;-76
2021/07/24 02:14:47;;;;;;;1.48;1.48;;;;;;;17.01;72.34;101809.72;5981800;29;20209;-76
2021/07/24 02:18:01;;;;;;;1.50;1.40;;;;;;;17.08;72.29;101809.59;5981774;29;20269;-75
2021/07/24 02:21:08;;;;;;;1.75;1.73;;;;;;;17.06;72.30;101807.09;5982138;29;20220;-75
2021/07/24 02:24:13;;;;;;;1.67;1.67;;;;;;;17.03;72.44;101810.31;5983891;29;20212;-74
2021/07/24 02:27:18;;;;;;;2.00;1.90;;;;;;;17.01;72.86;101801.44;6001691;29;20231;-75
2021/07/24 02:30:23;;;;;;;1.65;1.55;;;;;;;17.07;72.26;101792.25;5981542;29;20277;-75
2021/07/24 02:33:28;;;;;;;2.00;1.90;;;;;;;17.09;72.34;101806.63;5981702;29;20209;-75
2021/07/24 02:36:34;;;;;;;2.00;1.90;;;;;;;17.05;72.47;101805.41;5981941;29;20240;-75
2021/07/24 02:39:38;;;;;;;2.47;1.85;;;;;;;17.10;72.74;101801.97;5982743;29;20197;-75
2021/07/24 02:42:45;;;;;;;1.90;1.77;;;;;;;17.04;72.87;101801.00;5980969;29;20414;-76
2021/07/24 02:45:50;;;;;;;1.92;1.83;;;;;;;17.12;72.68;101805.31;5995932;29;20208;-75
2021/07/24 02:48:54;;;;;;;1.90;1.80;;;;;;;17.03;73.17;101802.06;5980865;29;20247;-75
2021/07/24 02:52:07;;;;;;;2.00;1.90;;;;;;;17.05;73.07;101805.41;5981501;29;20221;-75
2021/07/24 02:55:13;;;;;;;2.00;1.90;;;;;;;17.09;73.02;101805.78;5980579;29;20519;-75
2021/07/24 02:58:19;;;;;;;1.67;1.60;;;;;;;17.08;73.92;101801.34;5981979;29;20215;-75
2021/07/24 03:01:23;;;;;;;2.08;1.98;;;;;;;17.13;72.87;101802.31;5994895;29;20293;-75
2021/07/24 03:04:28;;;;;;;2.17;1.83;;;;;;;17.11;73.16;101798.97;5981508;29;20245;-75
2021/07/24 03:07:32;;;;;;;1.98;1.98;;;;;;;17.12;73.26;101800.66;5981478;29;20220;-75
2021/07/24 03:10:36;;;;;;;1.90;1.90;;;;;;;17.12;73.49;101806.16;5982332;29;20286;-75
2021/07/24 03:13:42;;;;;;;3.22;2.30;;;;;;;17.09;73.44;101794.75;5982176;29;20262;-75
2021/07/24 03:16:46;;;;;;;3.22;2.15;;;;;;;17.09;73.71;101801.13;5984665;29;20200;-75
2021/07/24 03:19:52;;;;;;;2.38;2.28;;;;;;;17.17;73.63;101809.03;5981019;29;20384;-75
2021/07/24 03:22:59;;;;;;;2.08;2.08;;;;;;;17.21;73.79;101810.25;5981820;29;20216;-75
2021/07/24 03:26:08;;;;;;;2.20;2.10;;;;;;;17.10;74.12;101789.00;5982168;29;20199;-75
2021/07/24 03:29:15;;;;;;;2.50;2.40;;;;;;;17.21;74.03;101804.72;5982144;29;20200;-75
2021/07/24 03:32:19;;;;;;;2.63;2.50;;;;;;;17.21;74.23;101810.25;5980726;29;20480;-75
2021/07/24 03:35:23;;;;;;;3.03;2.40;;;;;;;17.27;73.96;101822.25;5987388;29;20224;-75
2021/07/24 03:38:28;;;;;;;2.85;2.60;;;;;;;17.30;74.26;101811.59;5980068;29;20193;-75
2021/07/24 03:41:34;;;;;;;4.07;2.33;;;;;;;17.27;74.56;101817.56;5981334;29;20249;-75
2021/07/24 03:44:39;;;;;;;4.50;2.20;;;;;;;17.29;74.75;101811.81;5981442;29;20261;-76
2021/07/24 03:47:43;;;;;;;2.58;2.38;;;;;;;17.34;74.65;101810.03;5980415;29;20207;-75
2021/07/24 03:50:47;;;;;;;3.22;2.53;;;;;;;17.35;74.64;101805.34;5980343;29;20193;-76
2021/07/24 03:53:52;;;;;;;2.33;2.25;;;;;;;17.34;74.99;101810.03;5981248;29;20193;-75
2021/07/24 03:56:56;;;;;;;2.50;2.30;;;;;;;17.40;74.85;101806.31;5980118;29;20258;-76
2021/07/24 04:00:03;;;;;;;4.35;2.25;;;;;;;17.48;74.46;101810.66;5980124;29;20216;-75
2021/07/24 04:03:11;;;;;;;5.45;2.40;;;;;;;17.47;74.36;101804.28;5979963;29;20252;-76
2021/07/24 04:06:21;;;;;;;2.30;2.20;;;;;;;17.56;74.67;101813.09;5980895;29;20193;-75
2021/07/24 04:09:26;;;;;;;2.88;2.67;;;;;;;17.64;74.29;101809.13;5979955;29;20484;-76
2021/07/24 04:12:32;;;;;;;2.47;2.38;;;;;;;17.68;74.41;101811.16;5979787;29;20489;-75
2021/07/24 04:15:38;;;;;;;2.85;2.65;;;;;;;17.72;74.54;101811.53;5979846;29;20388;-76
2021/07/24 04:18:42;;;;;;;3.13;2.60;;;;;;;17.72;74.25;101806.81;5980691;29;20193;-75
2021/07/24 04:21:46;;;;;;;5.68;2.65;;;;;;;17.84;73.86;101815.09;5980835;29;20221;-76
2021/07/24 04:24:51;;;;;;;3.90;2.80;;;;;;;17.83;74.11;101816.19;5980965;29;20225;-76
2021/07/24 04:27:55;;;;;;;3.30;2.97;;;;;;;17.84;74.44;101813.19;5980441;29;20241;-76
2021/07/24 04:31:00;;;;;;;3.47;2.58;;;;;;;17.92;73.99;101817.50;5980461;29;20279;-76
2021/07/24 04:34:04;;;;;;;2.95;2.67;;;;;;;17.96;74.12;101815.94;5980822;29;20264;-76
2021/07/24 04:37:10;;;;;;;3.08;2.85;;;;;;;18.03;73.83;101830.44;5981942;29;20302;-75
2021/07/24 04:40:14;;;;;;;2.92;2.78;;;;;;;18.06;74.00;101818.91;5979338;29;20197;-76
2021/07/24 04:43:19;;;;;;;3.25;2.92;;;;;;;18.16;74.06;101819.13;5983275;29;20217;-75
2021/07/24 04:46:24;;;;;;;3.00;2.80;;;;;;;18.16;74.58;101824.66;5981238;29;20383;-76
2021/07/24 04:49:31;;;;;;;2.95;2.85;;;;;;;18.19;75.27;101815.03;5980408;29;20192;-76
2021/07/24 04:52:36;;;;;;;3.05;2.80;;;;;;;18.26;75.18;101813.81;5979755;29;20254;-75
2021/07/24 04:55:41;;;;;;;3.15;3.03;;;;;;;18.30;75.36;101815.03;5979019;29;20482;-76
2021/07/24 04:58:45;;;;;;;5.63;3.53;;;;;;;18.35;75.19;101823.41;5979215;29;20476;-76
2021/07/24 05:01:51;;;;;;;4.72;3.30;;;;;;;18.33;75.66;101809.00;5979493;29;20236;-76
2021/07/24 05:04:57;;;;;;;3.38;3.28;;;;;;;18.42;76.01;101817.75;5979934;29;20299;-76
2021/07/24 05:08:02;;;;;;;3.50;3.20;;;;;;;18.48;75.32;101817.66;5980206;29;20251;-76
2021/07/24 05:11:06;;;;;;;3.25;3.15;;;;;;;18.51;75.71;101817.16;5979855;29;20245;-76
2021/07/24 05:14:12;;;;;;;3.40;3.20;;;;;;;18.55;75.80;101818.34;5980249;29;20228;-76
2021/07/24 05:17:18;;;;;;;3.35;3.15;;;;;;;18.60;75.50;101815.66;5980324;29;20197;-78
2021/07/24 05:20:24;;;;;;;3.60;3.33;;;;;;;18.67;75.40;101821.88;5979797;29;20200;-75
2021/07/24 05:23:29;;;;;;;3.13;2.90;;;;;;;18.74;74.96;101818.97;5979959;29;20221;-75
2021/07/24 05:26:33;;;;;;;2.83;2.72;;;;;;;18.74;74.87;101811.53;5979988;29;20223;-76
2021/07/24 05:29:38;;;;;;;4.40;3.40;;;;;;;18.90;74.12;101815.41;5979984;29;20197;-76
2021/07/24 05:32:43;;;;;;;3.28;3.00;;;;;;;18.90;74.24;101809.88;5979340;29;20201;-76
2021/07/24 05:35:47;;;;;;;3.45;3.30;;;;;;;18.88;74.50;101813.97;5979403;29;20256;-76
2021/07/24 05:38:51;;;;;;;3.05;2.83;;;;;;;18.93;73.53;101820.44;5978613;29;20257;-75
2021/07/24 05:41:55;;;;;;;4.43;3.15;;;;;;;19.00;72.83;101814.75;5979395;29;20307;-75
2021/07/24 05:44:59;;;;;;;3.15;2.88;;;;;;;19.14;72.23;101810.56;5978473;29;20522;-75
2021/07/24 05:48:06;;;;;;;3.90;3.03;;;;;;;19.32;71.76;101802.03;5978484;29;20424;-75
2021/07/24 05:51:10;;;;;;;3.40;2.88;;;;;;;19.41;72.13;101806.09;5978486;29;20417;-75
2021/07/24 05:54:14;;;;;;;4.65;3.00;;;;;;;19.57;70.83;101808.00;5982203;29;20282;-74
2021/07/24 05:57:19;;;;;;;3.08;2.97;;;;;;;19.71;70.38;101806.56;5980278;29;20193;-75
2021/07/24 06:00:24;;;;;;;2.70;2.60;;;;;;;19.91;70.12;101806.03;5978455;29;20193;-75
2021/07/24 06:03:30;;;;;;;3.15;3.00;;;;;;;20.02;68.69;101809.78;5981686;29;20244;-75
2021/07/24 06:06:35;;;;;;;2.72;2.53;;;;;;;20.17;67.48;101804.44;5982491;29;20364;-76
2021/07/24 06:09:39;;;;;;;3.00;2.90;;;;;;;20.24;67.27;101807.88;5983742;29;20193;-75
2021/07/24 06:12:47;;;;;;;2.50;2.50;;;;;;;20.43;64.85;101809.25;5982422;29;20372;-75
2021/07/24 06:15:51;;;;;;;2.97;2.88;;;;;;;20.55;65.22;101807.16;5983229;29;20224;-75
2021/07/24 06:18:56;;;;;;;2.78;2.70;;;;;;;20.54;63.27;101805.50;5982335;29;20426;-76
2021/07/24 06:22:00;;;;;;;2.50;2.50;;;;;;;20.65;61.03;101800.91;5982636;29;20200;-75
2021/07/24 06:25:06;;;;;;;2.40;2.30;;;;;;;20.72;60.07;101802.38;5983336;29;20261;-75
2021/07/24 06:28:12;;;;;;;3.10;2.20;;;;;;;20.87;60.72;101802.53;5983301;29;20242;-75
2021/07/24 06:31:16;;;;;;;2.55;2.45;;;;;;;21.00;60.08;101806.81;5982758;29;20223;-76
2021/07/24 06:34:22;;;;;;;5.55;2.80;;;;;;;21.12;59.65;101808.34;5983081;29;20197;-76
2021/07/24 06:37:26;;;;;;;2.72;2.63;;;;;;;21.21;59.42;101817.03;5981766;29;20390;-76
2021/07/24 06:40:30;;;;;;;2.70;2.60;;;;;;;21.33;58.19;101802.97;5981617;29;20283;-76
2021/07/24 06:43:34;;;;;;;2.67;2.47;;;;;;;21.48;58.78;101811.41;5981916;29;20227;-75
2021/07/24 06:46:38;;;;;;;2.60;2.50;;;;;;;21.64;59.72;101813.22;5981651;29;20193;-77
2021/07/24 06:49:44;;;;;;;3.75;2.58;;;;;;;21.72;58.60;101812.72;5982748;29;20193;-76
2021/07/24 06:52:48;;;;;;;2.47;2.42;;;;;;;21.82;58.16;101826.66;5982641;29;20264;-76
2021/07/24 06:55:55;;;;;;;2.30;2.28;;;;;;;21.91;56.27;101827.84;5981748;29;20256;-76
2021/07/24 06:59:00;;;;;;;2.42;2.38;;;;;;;21.95;55.62;101820.69;5981371;29;20476;-76
2021/07/24 07:02:05;;;;;;;5.07;2.72;;;;;;;21.91;55.72;101816.75;5986494;29;20236;-74
2021/07/24 07:05:12;;;;;;;2.42;2.40;;;;;;;22.06;56.23;101811.28;5981826;29;20220;-75
2021/07/24 07:08:16;;;;;;;3.45;2.38;;;;;;;22.08;54.97;101822.97;5982662;29;20199;-75
2021/07/24 07:11:22;;;;;;;2.30;2.30;;;;;;;22.05;54.02;101829.06;5980956;29;20201;-75
2021/07/24 07:14:27;;;;;;;2.60;2.30;;;;;;;21.99;53.75;101830.13;5980941;29;20223;-75
2021/07/24 07:17:31;;;;;;;2.70;2.50;;;;;;;22.17;53.92;101826.91;5983528;29;20342;-76
2021/07/24 07:20:36;;;;;;;2.20;2.20;;;;;;;22.11;53.99;101827.97;5982409;29;20192;-75
2021/07/24 07:23:40;;;;;;;2.47;2.40;;;;;;;22.21;53.95;101827.22;5979881;29;20263;-76
2021/07/24 07:26:45;;;;;;;2.75;2.53;;;;;;;22.07;52.66;101826.84;5980431;29;20230;-76
2021/07/24 07:29:49;;;;;;;2.75;2.53;;;;;;;22.34;53.63;101816.41;5981515;29;20310;-76
2021/07/24 07:32:53;;;;;;;2.53;2.17;;;;;;;22.48;53.97;101827.03;5981569;29;20193;-75
2021/07/24 07:35:59;;;;;;;3.35;2.58;;;;;;;22.50;53.71;101830.38;5979716;29;20235;-76
2021/07/24 07:39:04;;;;;;;2.60;2.50;;;;;;;22.69;54.05;101817.69;5980335;29;20366;-76
2021/07/24 07:42:10;;;;;;;2.55;2.40;;;;;;;22.79;53.00;101812.97;5980565;29;20223;-76
2021/07/24 07:45:15;;;;;;;3.15;2.33;;;;;;;22.68;52.77;101810.44;5981310;29;20228;-75
2021/07/24 07:48:19;;;;;;;3.55;2.40;;;;;;;22.87;52.47;101825.53;5981281;29;20196;-75
2021/07/24 07:51:25;;;;;;;2.53;2.45;;;;;;;22.96;51.73;101835.00;5981165;29;20253;-76
2021/07/24 07:54:30;;;;;;;5.32;2.28;;;;;;;23.04;52.21;101823.31;5980992;29;20228;-76
2021/07/24 07:57:35;;;;;;;6.32;2.50;;;;;;;23.11;52.15;101829.47;5981017;29;20193;-76
2021/07/24 08:00:40;;;;;;;2.50;2.40;;;;;;;23.20;52.80;101819.44;5980105;29;20226;-76
2021/07/24 08:03:44;;;;;;;2.60;2.40;;;;;;;23.18;52.69;101827.25;5980207;29;20554;-76
2021/07/24 08:06:50;;;;;;;2.50;2.40;;;;;;;23.13;51.85;101832.81;5979951;29;20218;-76
2021/07/24 08:09:56;;;;;;;2.60;2.38;;;;;;;23.19;51.83;101828.91;5980966;29;20354;-75
2021/07/24 08:13:10;;;;;;;6.22;2.55;;;;;;;23.29;52.11;101828.91;5983735;29;20394;-76
2021/07/24 08:16:17;;;;;;;2.40;2.20;;;;;;;23.18;51.49;101818.91;5979180;29;20584;-75
2021/07/24 08:19:21;;;;;;;2.58;2.38;;;;;;;23.30;50.91;101819.44;5980059;29;20197;-75
2021/07/24 08:22:27;;;;;;;2.25;2.10;;;;;;;23.32;49.78;101806.06;5980008;29;20193;-75
2021/07/24 08:25:31;;;;;;;2.30;2.20;;;;;;;23.43;49.45;101824.50;5978704;29;20516;-76
2021/07/24 08:28:36;;;;;;;2.28;2.20;;;;;;;23.30;48.29;101825.00;5979843;29;20242;-76
2021/07/24 08:31:40;;;;;;;2.20;2.10;;;;;;;23.35;48.61;101822.22;5980047;29;20228;-76
2021/07/24 08:34:49;;;;;;;2.42;2.28;;;;;;;23.17;46.26;101820.00;5979839;29;20197;-75
2021/07/24 08:37:55;;;;;;;2.58;2.30;;;;;;;23.26;47.70;101818.34;5981549;29;20527;-76
2021/07/24 08:40:59;;;;;;;2.20;2.20;;;;;;;23.29;48.11;101823.34;5979443;29;20208;-74
2021/07/24 08:44:04;;;;;;;3.30;1.88;;;;;;;23.13;45.90;101824.47;5979445;29;20220;-75
2021/07/24 08:47:09;;;;;;;2.50;2.40;;;;;;;23.14;46.37;101814.97;5979940;29;20209;-76
2021/07/24 08:50:14;;;;;;;2.17;2.17;;;;;;;23.02;46.59;101811.63;5978799;29;20351;-75
2021/07/24 08:53:25;;;;;;;2.10;1.80;;;;;;;23.07;46.05;101817.19;5978505;29;20506;-75
2021/07/24 08:56:35;;;;;;;1.90;1.90;;;;;;;23.09;46.21;101817.75;5978479;29;20260;-75
2021/07/24 08:59:41;;;;;;;4.97;2.20;;;;;;;23.09;45.66;101812.19;5978558;29;20348;-76
2021/07/24 09:02:48;;;;;;;1.90;1.90;;;;;;;23.14;45.90;101820.53;5978463;29;20244;-76
2021/07/24 09:05:53;;;;;;;2.28;2.28;;;;;;;23.11;46.26;101810.00;5979282;29;20326;-76
2021/07/24 09:08:59;;;;;;;2.50;2.40;;;;;;;23.13;46.67;101802.19;5979056;29;20313;-76
2021/07/24 09:12:04;;;;;;;2.50;2.40;;;;;;;23.11;47.33;101804.41;5979174;29;20193;-75
2021/07/24 09:15:11;;;;;;;2.92;2.20;;;;;;;23.16;45.78;101801.63;5979178;29;20197;-76
2021/07/24 09:18:15;;;;;;;2.08;2.00;;;;;;;23.16;46.30;101801.63;5978751;29;20193;-76
2021/07/24 09:21:22;;;;;;;2.10;2.10;;;;;;;23.16;44.73;101803.56;5984314;29;20273;-76
2021/07/24 09:24:27;;;;;;;2.30;2.10;;;;;;;23.10;44.10;101802.72;5979108;29;20260;-77
2021/07/24 09:27:31;;;;;;;6.32;2.20;;;;;;;23.15;43.98;101805.53;5978570;29;20229;-77
2021/07/24 09:30:35;;;;;;;2.40;2.30;;;;;;;23.14;43.08;101798.28;5978327;29;20390;-76
2021/07/24 09:33:50;;;;;;;4.70;2.58;;;;;;;23.13;42.80;101802.19;5978201;29;20193;-75
2021/07/24 09:36:54;;;;;;;2.13;2.13;;;;;;;23.20;44.13;101791.59;5980232;29;20232;-76
2021/07/24 09:40:20;;;;;;;2.60;2.60;;;;;;;23.21;42.93;101792.44;5982681;29;20391;-76
2021/07/24 09:43:32;;;;;;;3.17;3.03;;;;;;;23.20;43.71;101783.25;5983588;29;20261;-76
2021/07/24 09:46:37;;;;;;;2.70;2.60;;;;;;;23.30;43.91;101802.75;5982699;29;20236;-76
2021/07/24 09:49:44;;;;;;;4.57;2.50;;;;;;;23.32;44.41;101794.09;5982612;29;20194;-76
2021/07/24 09:52:50;;;;;;;2.38;2.38;;;;;;;23.35;43.65;101794.38;5983314;29;20197;-76
2021/07/24 09:55:56;;;;;;;2.75;2.75;;;;;;;23.36;43.29;101801.66;5982491;29;20397;-76
2021/07/24 09:59:17;;;;;;;3.30;3.10;;;;;;;23.42;44.54;101806.09;5985763;29;20225;-76
2021/07/24 10:02:30;;;;;;;3.33;3.20;;;;;;;23.39;44.24;101795.53;5983223;29;20317;-76
2021/07/24 10:05:39;;;;;;;6.18;3.30;;;;;;;23.48;43.82;101799.44;5982144;29;20221;-76
2021/07/24 10:08:44;;;;;;;4.55;3.60;;;;;;;23.49;43.48;101787.19;5983053;29;20193;-76
2021/07/24 10:11:50;;;;;;;3.67;3.42;;;;;;;23.51;42.86;101798.88;5981829;29;20449;-76
2021/07/24 10:14:54;;;;;;;3.13;3.03;;;;;;;23.54;42.95;101795.53;5983051;29;20201;-76
2021/07/24 10:18:00;;;;;;;3.67;3.47;;;;;;;23.61;43.07;101798.84;5983372;29;20196;-76
2021/07/24 10:21:04;;;;;;;3.88;3.67;;;;;;;23.63;43.13;101785.47;5983108;29;20224;-76
2021/07/24 10:24:11;;;;;;;3.58;3.38;;;;;;;23.69;43.56;101783.53;5981816;29;20429;-76
2021/07/24 10:27:24;;;;;;;4.22;4.03;;;;;;;23.69;43.22;101783.53;5982403;29;20269;-75
2021/07/24 10:30:33;;;;;;;4.35;3.95;;;;;;;23.77;43.47;101785.72;5988390;29;20265;-75
2021/07/24 10:33:37;;;;;;;5.43;3.45;;;;;;;23.83;43.65;101778.19;5981919;29;20311;-75
2021/07/24 10:36:43;;;;;;;3.47;3.38;;;;;;;23.87;43.91;101779.28;5982332;29;20222;-75
2021/07/24 10:39:47;;;;;;;3.40;3.10;;;;;;;23.95;44.18;101781.50;5982504;29;20242;-75
2021/07/24 10:42:53;;;;;;;3.40;3.20;;;;;;;24.04;44.34;101786.19;5981996;29;20225;-75
2021/07/24 10:45:58;;;;;;;3.85;3.58;;;;;;;24.07;43.35;101790.38;5982300;29;20224;-75
2021/07/24 10:49:04;;;;;;;3.45;3.25;;;;;;;23.94;43.38;101790.97;5981333;29;20264;-76
2021/07/24 10:52:11;;;;;;;3.38;3.20;;;;;;;23.96;43.23;101785.97;5982204;29;20193;-76
2021/07/24 10:55:15;;;;;;;3.55;3.38;;;;;;;24.04;43.43;101772.25;5981216;29;20197;-75
2021/07/24 10:58:24;;;;;;;3.40;3.20;;;;;;;24.09;42.22;101782.59;5982155;29;20316;-76
2021/07/24 11:01:47;;;;;;;3.85;3.65;;;;;;;24.08;41.17;101780.94;5980931;29;20362;-76
2021/07/24 11:04:52;;;;;;;3.80;3.47;;;;;;;24.13;42.14;101784.53;5981804;29;20308;-76
2021/07/24 11:07:57;;;;;;;3.75;3.55;;;;;;;24.09;41.41;101777.00;5981208;29;20503;-75
2021/07/24 11:11:11;;;;;;;4.00;3.80;;;;;;;24.15;41.58;101775.88;5982170;29;20200;-75
2021/07/24 11:14:57;;;;;;;4.80;3.40;;;;;;;24.30;41.96;101778.59;5981797;29;20218;-75
2021/07/24 11:18:23;;;;;;;3.58;3.40;;;;;;;24.36;41.92;101783.06;5972410;29;20244;-76
2021/07/24 11:22:03;;;;;;;4.15;3.72;;;;;;;24.38;41.50;101785.53;5982321;29;20193;-76
2021/07/24 11:25:31;;;;;;;4.32;3.92;;;;;;;24.42;40.78;101790.25;5976597;29;20216;-76
2021/07/24 11:28:35;;;;;;;3.65;3.45;;;;;;;24.44;39.86;101779.66;5980360;29;20208;-76
2021/07/24 11:31:46;;;;;;;3.80;3.60;;;;;;;24.60;40.00;101777.63;5980443;29;20399;-76
2021/07/24 11:34:58;;;;;;;3.67;3.50;;;;;;;24.64;40.40;101778.72;5981540;29;20361;-76
2021/07/24 11:38:04;;;;;;;4.15;3.95;;;;;;;24.70;41.26;101772.78;5985524;29;20204;-75
2021/07/24 11:41:12;;;;;;;3.63;3.42;;;;;;;24.79;41.93;101771.09;5985166;29;20200;-76
2021/07/24 11:44:24;;;;;;;3.55;3.40;;;;;;;24.86;41.25;101771.63;5980694;29;20211;-76
2021/07/24 11:47:30;;;;;;;3.67;3.47;;;;;;;24.97;41.46;101777.97;5980351;29;20230;-76
2021/07/24 11:50:37;;;;;;;3.78;3.58;;;;;;;25.03;41.40;101787.13;5981820;29;20256;-75
2021/07/24 11:53:41;;;;;;;5.78;4.72;;;;;;;24.98;40.25;101773.22;5980423;29;20197;-75
2021/07/24 11:56:51;;;;;;;3.97;3.78;;;;;;;25.08;39.93;101778.72;5979906;29;20395;-75
2021/07/24 11:59:55;;;;;;;4.25;3.95;;;;;;;25.06;40.71;101780.97;5980597;29;20228;-75
2021/07/24 12:03:19;;;;;;;6.40;4.10;;;;;;;24.91;37.53;101786.69;5979847;29;20442;-75
2021/07/24 12:06:25;;;;;;;3.67;3.58;;;;;;;24.88;38.51;101774.94;5978929;29;20255;-75
2021/07/24 12:09:31;;;;;;;3.80;3.60;;;;;;;24.93;40.09;101770.47;5980098;29;20193;-75
2021/07/24 12:12:35;;;;;;;3.92;3.80;;;;;;;25.04;39.84;101772.06;5980860;29;20197;-75
2021/07/24 12:15:57;;;;;;;4.32;3.97;;;;;;;25.11;40.42;101766.97;5979655;29;20200;-75
2021/07/24 12:19:11;;;;;;;4.00;3.75;;;;;;;25.25;40.83;101767.97;5980687;29;20229;-75
2021/07/24 12:22:19;;;;;;;4.05;3.78;;;;;;;25.25;40.20;101768.78;5979573;29;20392;-77
2021/07/24 12:25:25;;;;;;;4.03;3.72;;;;;;;25.22;37.79;101768.53;5980631;29;20193;-75
2021/07/24 12:28:30;;;;;;;4.18;3.97;;;;;;;25.32;37.76;101760.09;5979650;29;20217;-75
2021/07/24 12:31:42;;;;;;;5.70;4.18;;;;;;;25.27;36.83;101765.72;5979420;29;20201;-76
2021/07/24 12:34:50;;;;;;;4.63;4.32;;;;;;;25.27;37.73;101765.72;5980511;29;20197;-76
2021/07/24 12:38:04;;;;;;;4.50;4.22;;;;;;;25.40;37.79;101759.44;5981572;29;20197;-76
2021/07/24 12:41:09;;;;;;;4.47;4.15;;;;;;;25.43;37.68;101770.03;5982057;29;20224;-76
2021/07/24 12:44:14;;;;;;;5.85;3.75;;;;;;;25.49;36.81;101763.31;5979150;29;20481;-76
2021/07/24 12:47:19;;;;;;;4.20;4.00;;;;;;;25.57;38.19;101759.88;5983398;29;20273;-75
2021/07/24 12:50:24;;;;;;;4.75;4.45;;;;;;;25.68;37.55;101753.03;5982697;29;20193;-76
2021/07/24 12:53:32;;;;;;;4.45;4.13;;;;;;;25.76;39.24;101769.16;5979096;29;20387;-76
2021/07/24 12:56:38;;;;;;;4.00;3.90;;;;;;;25.84;37.83;101748.09;5979897;29;20260;-76
2021/07/24 12:59:42;;;;;;;4.15;3.95;;;;;;;25.76;37.49;101757.97;5979908;29;20193;-75
2021/07/24 13:02:47;;;;;;;5.55;4.68;;;;;;;25.95;37.05;101744.06;5978990;29;20250;-76
2021/07/24 13:05:52;;;;;;;4.50;4.20;;;;;;;26.03;36.96;101746.22;5979176;29;20429;-76
2021/07/24 13:08:59;;;;;;;4.10;3.90;;;;;;;26.17;36.49;101737.97;5979384;29;20266;-76
2021/07/24 13:12:03;;;;;;;4.65;4.35;;;;;;;26.23;35.90;101739.56;5977827;29;20393;-76
2021/07/24 13:15:09;;;;;;;3.70;3.50;;;;;;;26.34;36.15;101735.50;5980048;29;20189;-76
2021/07/24 13:18:13;;;;;;;4.50;4.00;;;;;;;26.40;36.58;101728.69;5979804;29;20311;-76
2021/07/24 13:21:18;;;;;;;4.28;3.88;;;;;;;26.54;36.23;101726.81;5979572;29;20273;-76
2021/07/24 13:24:23;;;;;;;4.38;4.18;;;;;;;26.45;34.62;101725.84;5978465;29;20490;-76
2021/07/24 13:30:52;;;;;;;4.20;3.90;;;;;;;26.62;34.87;101726.13;5979557;29;20459;-76
2021/07/24 13:33:56;;;;;;;4.15;3.90;;;;;;;26.72;35.03;101721.22;5993488;29;20215;-76
2021/07/24 13:37:01;;;;;;;4.20;4.10;;;;;;;26.68;35.15;101724.94;5978456;29;20272;-76
2021/07/24 13:40:09;;;;;;;5.03;3.85;;;;;;;26.52;33.85;101709.50;5978375;29;20498;-76
2021/07/24 13:43:13;;;;;;;4.68;4.05;;;;;;;27.32;34.80;101713.75;5978354;29;20388;-75
2021/07/24 13:46:18;;;;;;;4.43;4.22;;;;;;;27.88;32.83;101709.91;5978746;29;20216;-75
2021/07/24 13:49:22;;;;;;;4.75;4.10;;;;;;;28.47;31.92;101706.94;5978735;29;20220;-75
2021/07/24 13:52:26;;;;;;;3.92;3.55;;;;;;;28.91;31.38;101702.56;5977983;29;20193;-76
2021/07/24 13:55:32;;;;;;;4.22;3.90;;;;;;;28.31;32.27;101702.81;5979987;29;20197;-75
2021/07/24 13:58:36;;;;;;;4.38;4.15;;;;;;;27.65;32.90;101713.75;5980605;29;20364;-76
2021/07/24 14:01:40;;;;;;;4.18;3.88;;;;;;;27.69;33.68;101706.38;5980186;29;20260;-75
2021/07/24 14:04:45;;;;;;;4.18;3.90;;;;;;;27.28;32.96;101706.28;5979020;29;20240;-76
2021/07/24 14:07:49;;;;;;;4.45;4.25;;;;;;;27.33;33.32;101698.63;5978858;29;20297;-76
2021/07/24 14:10:54;;;;;;;3.83;3.72;;;;;;;27.07;33.61;101703.00;5978240;29;20508;-76
2021/07/24 14:13:59;;;;;;;3.72;3.63;;;;;;;27.18;33.36;101704.50;5979094;29;20216;-76
2021/07/24 14:17:03;;;;;;;4.80;4.40;;;;;;;27.14;33.41;101706.22;5976950;29;20208;-76
2021/07/24 14:20:09;;;;;;;3.58;3.47;;;;;;;27.09;34.81;101709.13;5978783;29;20208;-76
2021/07/24 14:23:14;;;;;;;3.45;3.25;;;;;;;26.96;36.95;101703.50;5980142;29;20192;-76
2021/07/24 14:26:19;;;;;;;5.63;3.25;;;;;;;26.80;38.37;101688.09;5982433;29;20285;-75
2021/07/24 14:29:26;;;;;;;3.63;3.33;;;;;;;26.80;39.48;101691.72;5981873;29;20247;-76
2021/07/24 14:32:30;;;;;;;3.75;3.40;;;;;;;26.91;38.84;101690.44;5982788;29;20200;-75